createdAt,value
2019-04-22T00:01:56.999Z,12.60
2019-04-22T00:04:37.065Z,12.40
2019-04-22T00:07:15.849Z,12.30
2019-04-22T00:09:59.595Z,12.10
2019-04-22T00:12:34.107Z,11.80
2019-04-22T00:15:09.791Z,11.80
2019-04-22T00:18:00.232Z,11.90
2019-04-22T00:20:23.160Z,12.00
2019-04-22T00:22:51.931Z,12.00
2019-04-22T00:25:48.232Z,11.90
2019-04-22T00:28:23.287Z,11.80
2019-04-22T00:30:56.245Z,11.50
2019-04-22T00:33:29.077Z,11.40
2019-04-22T00:36:02.719Z,11.40
2019-04-22T00:41:08.217Z,11.50
2019-04-22T00:43:41.175Z,11.50
2019-04-22T00:46:10.957Z,11.40
2019-04-22T00:48:57.632Z,11.50
2019-04-22T00:51:25.287Z,11.40
2019-04-22T00:53:57.789Z,11.40
2019-04-22T00:56:27.893Z,11.30
2019-04-22T00:59:22.105Z,11.20
2019-04-22T01:01:52.569Z,11.00
2019-04-22T01:04:35.150Z,11.10
2019-04-22T01:07:02.005Z,11.10
2019-04-22T01:09:58.933Z,11.20
2019-04-22T01:12:26.103Z,11.00
2019-04-22T01:15:05.771Z,10.70
2019-04-22T01:17:34.271Z,10.50
2019-04-22T01:20:25.842Z,10.30
2019-04-22T01:22:38.278Z,10.20
2019-04-22T01:25:12.949Z,10.20
2019-04-22T01:27:41.489Z,10.10
2019-04-22T01:30:13.962Z,10.20
2019-04-22T01:32:37.089Z,10.30
2019-04-22T01:35:12.998Z,10.40
2019-04-22T01:37:52.032Z,10.50
2019-04-22T01:40:31.568Z,10.10
2019-04-22T01:43:15.073Z,9.90
2019-04-22T01:45:42.183Z,10.00
2019-04-22T01:48:12.815Z,10.10
2019-04-22T01:50:43.117Z,10.20
2019-04-22T01:53:21.326Z,10.10
2019-04-22T01:55:54.741Z,10.10
2019-04-22T01:58:28.882Z,10.20
2019-04-22T02:01:05.950Z,9.90
2019-04-22T02:03:39.854Z,10.00
2019-04-22T02:06:30.242Z,9.80
2019-04-22T02:09:00.591Z,9.50
2019-04-22T02:11:33.877Z,9.60
2019-04-22T02:14:05.050Z,9.70
2019-04-22T02:19:19.226Z,9.50
2019-04-22T02:21:42.866Z,9.50
2019-04-22T02:24:18.311Z,9.40
2019-04-22T02:26:56.783Z,9.40
2019-04-22T02:29:30.016Z,9.60
2019-04-22T02:32:17.211Z,9.60
2019-04-22T02:34:49.670Z,9.50
2019-04-22T02:37:12.482Z,9.40
2019-04-22T02:39:54.971Z,9.50
2019-04-22T02:44:42.767Z,9.30
2019-04-22T02:47:23.453Z,9.30
2019-04-22T02:55:02.239Z,9.00
2019-04-22T02:57:35.469Z,8.70
2019-04-22T03:00:21.531Z,8.40
2019-04-22T03:05:34.636Z,8.30
2019-04-22T03:07:58.948Z,8.60
2019-04-22T03:10:29.415Z,8.70
2019-04-22T03:13:01.117Z,8.50
2019-04-22T03:15:30.024Z,8.20
2019-04-22T03:18:03.066Z,8.30
2019-04-22T03:20:41.554Z,8.40
2019-04-22T03:23:29.668Z,8.30
2019-04-22T03:28:30.956Z,8.30
2019-04-22T03:31:35.875Z,8.40
2019-04-22T03:34:17.755Z,8.40
2019-04-22T03:39:29.944Z,8.50
2019-04-22T03:41:57.233Z,8.70
2019-04-22T03:44:23.605Z,8.70
2019-04-22T03:47:01.825Z,8.70
2019-04-22T04:04:59.482Z,8.20
2019-04-22T04:07:47.800Z,8.00
2019-04-22T04:10:25.889Z,8.00
2019-04-22T04:12:53.883Z,8.20
2019-04-22T04:17:55.005Z,7.80
2019-04-22T04:23:05.321Z,7.80
2019-04-22T04:25:32.579Z,8.00
2019-04-22T04:28:29.782Z,8.10
2019-04-22T04:33:09.283Z,8.40
2019-04-22T04:38:06.917Z,8.80
2019-04-22T04:41:06.219Z,8.90
2019-04-22T04:43:50.216Z,9.00
2019-04-22T04:46:13.880Z,9.00
2019-04-22T04:53:41.333Z,9.00
2019-04-22T04:56:27.829Z,8.90
2019-04-22T04:59:19.469Z,9.00
2019-04-22T05:04:25.498Z,10.50
2019-04-22T05:06:51.866Z,11.50
2019-04-22T05:10:09.714Z,12.30
2019-04-22T05:12:01.921Z,12.70
2019-04-22T05:14:28.905Z,13.00
2019-04-22T05:17:02.243Z,13.30
2019-04-22T05:19:59.074Z,13.40
2019-04-22T05:22:14.961Z,13.40
2019-04-22T05:24:44.046Z,13.00
2019-04-22T05:27:21.667Z,12.70
2019-04-22T05:32:37.072Z,11.80
2019-04-22T05:35:09.689Z,12.10
2019-04-22T05:37:45.542Z,11.70
2019-04-22T05:40:29.335Z,11.50
2019-04-22T05:43:11.073Z,11.70
2019-04-22T05:45:40.527Z,12.20
2019-04-22T05:48:15.782Z,12.30
2019-04-22T05:50:42.009Z,12.60
2019-04-22T05:53:11.493Z,13.20
2019-04-22T05:55:46.670Z,14.60
2019-04-22T05:58:17.077Z,15.60
2019-04-22T06:01:21.298Z,15.90
2019-04-22T06:03:08.584Z,17.30
2019-04-22T06:05:47.370Z,17.90
2019-04-22T06:08:23.240Z,19.60
2019-04-22T06:10:54.148Z,19.90
2019-04-22T06:13:18.144Z,19.80
2019-04-22T06:15:55.643Z,20.70
2019-04-22T06:18:27.134Z,19.60
2019-04-22T06:21:09.096Z,20.20
2019-04-22T06:23:34.578Z,19.40
2019-04-22T06:31:15.725Z,17.20
2019-04-22T06:33:43.515Z,17.40
2019-04-22T06:36:09.481Z,18.50
2019-04-22T06:38:39.863Z,17.90
2019-04-22T06:41:16.459Z,18.60
2019-04-22T06:43:40.818Z,19.60
2019-04-22T06:46:14.439Z,20.00
2019-04-22T06:48:40.414Z,18.80
2019-04-22T06:51:24.417Z,18.30
2019-04-22T06:53:48.245Z,19.50
2019-04-22T06:56:16.172Z,19.90
2019-04-22T06:58:45.772Z,20.30
2019-04-22T07:04:03.572Z,21.10
2019-04-22T07:06:26.152Z,21.20
2019-04-22T07:09:14.412Z,23.10
2019-04-22T07:11:18.848Z,23.40
2019-04-22T07:14:00.034Z,24.80
2019-04-22T07:19:01.897Z,25.60
2019-04-22T07:21:35.180Z,26.20
2019-04-22T07:24:20.038Z,25.40
2019-04-22T07:26:32.711Z,25.50
2019-04-22T07:29:06.135Z,25.00
2019-04-22T07:31:52.666Z,23.50
2019-04-22T07:34:13.399Z,23.50
2019-04-22T07:39:04.476Z,22.60
2019-04-22T07:46:50.155Z,25.20
2019-04-22T07:49:33.846Z,24.80
2019-04-22T07:51:44.489Z,24.20
2019-04-22T07:54:16.332Z,25.20
2019-04-22T07:56:47.008Z,25.00
2019-04-22T07:59:22.440Z,25.00
2019-04-22T08:01:56.296Z,25.30
2019-04-22T08:07:24.477Z,25.90
2019-04-22T08:09:47.906Z,25.90
2019-04-22T08:12:32.254Z,27.00
2019-04-22T08:14:52.157Z,26.90
2019-04-22T08:17:45.134Z,25.60
2019-04-22T08:20:00.503Z,27.60
2019-04-22T08:22:34.094Z,27.00
2019-04-22T08:25:04.218Z,27.80
2019-04-22T08:27:42.802Z,27.50
2019-04-22T08:30:23.498Z,28.70
2019-04-22T08:32:47.452Z,25.90
2019-04-22T08:35:38.267Z,25.70
2019-04-22T08:38:11.400Z,27.40
2019-04-22T08:40:48.746Z,26.00
2019-04-22T08:43:20.497Z,26.20
2019-04-22T08:45:51.459Z,27.30
2019-04-22T08:48:15.129Z,27.10
2019-04-22T08:51:00.592Z,26.90
2019-04-22T08:53:31.436Z,25.80
2019-04-22T08:56:14.503Z,26.90
2019-04-22T08:59:04.666Z,26.40
2019-04-22T09:01:29.971Z,27.30
2019-04-22T09:03:57.838Z,26.90
2019-04-22T09:09:06.435Z,26.60
2019-04-22T09:11:46.902Z,26.50
2019-04-22T09:14:22.167Z,26.00
2019-04-22T09:16:48.723Z,25.50
2019-04-22T09:19:17.947Z,26.10
2019-04-22T09:21:54.508Z,26.60
2019-04-22T09:24:23.220Z,27.10
2019-04-22T09:26:53.972Z,27.10
2019-04-22T09:29:35.696Z,27.00
2019-04-22T09:32:05.644Z,26.50
2019-04-22T09:34:41.682Z,27.00
2019-04-22T09:37:20.626Z,26.70
2019-04-22T09:39:41.538Z,27.50
2019-04-22T09:42:24.225Z,26.50
2019-04-22T09:45:04.293Z,26.20
2019-04-22T09:47:33.873Z,26.30
2019-04-22T09:50:12.637Z,27.00
2019-04-22T09:52:37.904Z,25.10
2019-04-22T09:57:37.859Z,24.10
2019-04-22T10:02:59.305Z,24.80
2019-04-22T10:05:28.906Z,24.60
2019-04-22T10:08:06.708Z,24.80
2019-04-22T10:10:41.482Z,25.00
2019-04-22T10:13:23.635Z,24.90
2019-04-22T10:15:46.833Z,24.30
2019-04-22T10:18:17.854Z,24.20
2019-04-22T10:20:51.852Z,24.50
2019-04-22T10:23:37.628Z,24.90
2019-04-22T10:26:04.609Z,24.50
2019-04-22T10:28:44.617Z,24.30
2019-04-22T10:31:28.290Z,24.60
2019-04-22T10:33:42.180Z,24.50
2019-04-22T10:36:05.852Z,24.60
2019-04-22T10:38:34.632Z,24.80
2019-04-22T10:41:28.740Z,24.90
2019-04-22T10:43:57.584Z,24.90
2019-04-22T10:46:42.290Z,24.90
2019-04-22T10:49:18.265Z,24.70
2019-04-22T10:51:54.862Z,24.60
2019-04-22T10:54:27.387Z,24.80
2019-04-22T10:57:03.224Z,24.70
2019-04-22T10:59:34.388Z,24.70
2019-04-22T11:02:09.599Z,24.90
2019-04-22T11:05:06.017Z,25.10
2019-04-22T11:07:44.038Z,25.30
2019-04-22T11:10:32.001Z,25.50
2019-04-22T11:12:47.208Z,25.50
2019-04-22T11:15:22.428Z,25.50
2019-04-22T11:17:51.445Z,25.00
2019-04-22T11:20:21.787Z,25.10
2019-04-22T11:22:54.122Z,24.70
2019-04-22T11:25:31.832Z,24.60
2019-04-22T11:28:05.555Z,24.60
2019-04-22T11:30:40.935Z,24.50
2019-04-22T11:33:50.173Z,24.90
2019-04-22T11:35:57.573Z,25.40
2019-04-22T11:38:29.147Z,26.00
2019-04-22T11:41:29.316Z,26.20
2019-04-22T11:44:09.649Z,25.90
2019-04-22T11:46:45.260Z,26.30
2019-04-22T11:49:14.183Z,25.30
2019-04-22T11:51:45.726Z,25.70
2019-04-22T11:54:23.412Z,25.80
2019-04-22T11:56:54.877Z,25.80
2019-04-22T11:59:26.851Z,25.80
2019-04-22T12:01:56.942Z,26.10
2019-04-22T12:04:38.139Z,26.30
2019-04-22T12:07:12.870Z,26.20
2019-04-22T12:09:45.828Z,26.10
2019-04-22T12:12:15.917Z,26.20
2019-04-22T12:14:48.029Z,26.20
2019-04-22T12:17:20.023Z,25.80
2019-04-22T12:20:18.405Z,25.80
2019-04-22T12:22:47.377Z,25.90
2019-04-22T12:25:34.715Z,25.70
2019-04-22T12:27:56.988Z,25.50
2019-04-22T12:30:33.270Z,25.40
2019-04-22T12:33:04.672Z,25.30
2019-04-22T12:35:40.123Z,25.60
2019-04-22T12:38:10.723Z,25.90
2019-04-22T12:40:55.075Z,26.10
2019-04-22T12:43:22.155Z,26.30
2019-04-22T12:45:58.309Z,26.20
2019-04-22T12:48:32.927Z,26.00
2019-04-22T12:51:04.914Z,25.80
2019-04-22T12:53:40.188Z,25.70
2019-04-22T12:56:12.690Z,25.60
2019-04-22T12:58:47.631Z,26.00
2019-04-22T13:01:17.003Z,25.90
2019-04-22T13:03:52.095Z,25.70
2019-04-22T13:06:23.955Z,25.80
2019-04-22T13:08:52.661Z,25.60
2019-04-22T13:11:30.845Z,25.40
2019-04-22T13:14:05.340Z,25.50
2019-04-22T13:16:47.257Z,25.80
2019-04-22T13:19:24.613Z,25.80
2019-04-22T13:21:58.644Z,25.80
2019-04-22T13:24:34.168Z,25.50
2019-04-22T13:27:10.979Z,25.50
2019-04-22T13:29:41.112Z,25.80
2019-04-22T13:32:10.909Z,26.10
2019-04-22T13:34:49.431Z,26.00
2019-04-22T13:37:16.976Z,25.80
2019-04-22T13:39:46.936Z,25.50
2019-04-22T13:42:21.696Z,25.60
2019-04-22T13:45:09.683Z,25.70
2019-04-22T13:47:55.315Z,26.00
2019-04-22T13:51:00.949Z,25.90
2019-04-22T13:58:04.139Z,25.80
2019-04-22T14:00:32.309Z,25.70
2019-04-22T14:03:22.385Z,25.90
2019-04-22T14:06:14.433Z,25.80
2019-04-22T14:08:47.138Z,25.70
2019-04-22T14:11:28.645Z,25.50
2019-04-22T14:14:02.904Z,25.50
2019-04-22T14:16:35.269Z,25.70
2019-04-22T14:19:10.021Z,25.90
2019-04-22T14:21:47.287Z,25.80
2019-04-22T14:24:15.824Z,25.90
2019-04-22T14:26:58.935Z,25.60
2019-04-22T14:29:26.279Z,25.70
2019-04-22T14:32:05.472Z,25.90
2019-04-22T14:34:34.380Z,26.20
2019-04-22T14:37:09.963Z,25.70
2019-04-22T14:39:41.974Z,25.50
2019-04-22T14:42:36.799Z,25.50
2019-04-22T14:45:30.437Z,25.60
2019-04-22T14:48:07.194Z,25.70
2019-04-22T14:50:32.821Z,25.80
2019-04-22T14:53:05.433Z,25.80
2019-04-22T14:55:21.469Z,25.70
2019-04-22T14:57:59.137Z,25.50
2019-04-22T15:00:29.514Z,25.30
2019-04-22T15:03:10.887Z,25.50
2019-04-22T15:05:42.202Z,25.50
2019-04-22T15:08:17.317Z,25.50
2019-04-22T15:10:49.711Z,25.50
2019-04-22T15:13:31.668Z,25.50
2019-04-22T15:16:18.251Z,25.50
2019-04-22T15:18:55.681Z,25.50
2019-04-22T15:21:56.621Z,25.30
2019-04-22T15:24:27.220Z,25.30
2019-04-22T15:27:00.493Z,25.30
2019-04-22T15:29:33.612Z,25.30
2019-04-22T15:32:05.345Z,25.20
2019-04-22T15:34:36.932Z,25.30
2019-04-22T15:37:16.059Z,25.30
2019-04-22T15:40:08.839Z,25.60
2019-04-22T15:42:41.476Z,25.40
2019-04-22T15:45:08.925Z,25.30
2019-04-22T15:47:39.630Z,25.30
2019-04-22T15:50:09.987Z,25.40
2019-04-22T15:52:56.985Z,25.30
2019-04-22T15:56:18.773Z,25.30
2019-04-22T15:58:55.533Z,25.20
2019-04-22T16:01:33.178Z,25.40
2019-04-22T16:04:00.649Z,25.20
2019-04-22T16:06:30.157Z,25.30
2019-04-22T16:09:04.821Z,25.20
2019-04-22T16:11:38.076Z,25.10
2019-04-22T16:14:10.553Z,25.10
2019-04-22T16:16:48.459Z,25.00
2019-04-22T16:19:17.156Z,24.90
2019-04-22T16:21:53.060Z,24.90
2019-04-22T16:24:36.196Z,24.90
2019-04-22T16:27:08.748Z,24.90
2019-04-22T16:29:41.223Z,24.90
2019-04-22T16:32:13.654Z,24.90
2019-04-22T16:34:42.399Z,24.80
2019-04-22T16:37:25.119Z,24.70
2019-04-22T16:40:03.065Z,24.60
2019-04-22T16:42:56.934Z,24.70
2019-04-22T16:45:27.324Z,24.70
2019-04-22T16:47:55.990Z,24.60
2019-04-22T16:50:27.323Z,24.60
2019-04-22T16:53:02.295Z,24.60
2019-04-22T16:55:31.072Z,24.50
2019-04-22T16:58:10.689Z,24.60
2019-04-22T17:00:46.949Z,24.50
2019-04-22T17:03:26.880Z,24.50
2019-04-22T17:05:59.135Z,24.40
2019-04-22T17:08:46.740Z,24.30
2019-04-22T17:11:25.599Z,24.20
2019-04-22T17:13:57.451Z,24.10
2019-04-22T17:16:30.594Z,24.00
2019-04-22T17:19:13.212Z,24.00
2019-04-22T17:21:45.615Z,23.90
2019-04-22T17:24:19.508Z,23.80
2019-04-22T17:26:54.624Z,23.70
2019-04-22T17:29:41.519Z,23.50
2019-04-22T17:32:17.706Z,23.50
2019-04-22T17:34:45.648Z,23.40
2019-04-22T17:37:22.098Z,23.30
2019-04-22T17:40:11.671Z,23.30
2019-04-22T17:42:46.184Z,23.20
2019-04-22T17:45:40.211Z,23.10
2019-04-22T17:48:23.916Z,23.10
2019-04-22T17:51:03.534Z,23.00
2019-04-22T17:53:33.412Z,23.00
2019-04-22T17:56:32.432Z,23.00
2019-04-22T17:59:10.549Z,22.90
2019-04-22T18:01:29.528Z,22.70
2019-04-22T18:03:49.643Z,22.60
2019-04-22T18:06:42.799Z,22.60
2019-04-22T18:09:04.918Z,22.50
2019-04-22T18:12:00.864Z,22.40
2019-04-22T18:14:30.279Z,22.20
2019-04-22T18:16:49.866Z,22.00
2019-04-22T18:19:28.897Z,21.90
2019-04-22T18:21:57.263Z,21.80
2019-04-22T18:24:21.947Z,21.70
2019-04-22T18:27:07.207Z,21.70
2019-04-22T18:29:32.974Z,21.70
2019-04-22T18:32:07.182Z,21.50
2019-04-22T18:34:39.848Z,21.40
2019-04-22T18:37:15.655Z,21.30
2019-04-22T18:39:52.688Z,21.20
2019-04-22T18:42:17.373Z,21.10
2019-04-22T18:45:00.223Z,20.90
2019-04-22T18:47:25.280Z,20.90
2019-04-22T18:49:56.551Z,20.80
2019-04-22T18:52:40.245Z,20.70
2019-04-22T18:55:14.660Z,20.60
2019-04-22T18:58:02.709Z,20.50
2019-04-22T19:00:41.745Z,20.50
2019-04-22T19:03:58.211Z,20.40
2019-04-22T19:06:52.319Z,20.30
2019-04-22T19:09:43.874Z,20.20
2019-04-22T19:12:01.830Z,20.20
2019-04-22T19:14:34.648Z,20.20
2019-04-22T19:17:12.082Z,20.10
2019-04-22T19:19:33.355Z,20.00
2019-04-22T19:22:02.262Z,19.90
2019-04-22T19:24:39.867Z,19.90
2019-04-22T19:27:15.334Z,19.80
2019-04-22T19:29:55.873Z,19.70
2019-04-22T19:32:24.423Z,19.70
2019-04-22T19:35:14.027Z,19.50
2019-04-22T19:37:48.100Z,19.40
2019-04-22T19:40:30.344Z,19.20
2019-04-22T19:43:05.822Z,19.00
2019-04-22T19:45:29.137Z,18.80
2019-04-22T19:48:03.397Z,18.80
2019-04-22T19:50:38.009Z,18.70
2019-04-22T19:53:10.686Z,18.70
2019-04-22T19:55:43.177Z,18.70
2019-04-22T19:58:17.720Z,18.70
2019-04-22T20:00:52.040Z,18.70
2019-04-22T20:03:36.349Z,18.70
2019-04-22T20:06:26.860Z,18.60
2019-04-22T20:08:59.786Z,18.60
2019-04-22T20:11:35.238Z,18.40
2019-04-22T20:14:08.596Z,18.30
2019-04-22T20:16:34.378Z,18.10
2019-04-22T20:19:12.397Z,18.00
2019-04-22T20:21:43.530Z,17.90
2019-04-22T20:24:05.463Z,17.80
2019-04-22T20:26:50.160Z,17.70
2019-04-22T20:29:27.079Z,17.60
2019-04-22T20:31:58.757Z,17.60
2019-04-22T20:34:31.054Z,17.50
2019-04-22T20:39:38.023Z,17.40
2019-04-22T20:44:52.025Z,17.30
2019-04-22T20:47:18.089Z,17.30
2019-04-22T20:49:56.221Z,17.20
2019-04-22T20:52:36.740Z,17.10
2019-04-22T20:54:58.585Z,17.00
2019-04-22T20:57:34.927Z,16.80
2019-04-22T21:00:08.014Z,16.70
2019-04-22T21:02:37.473Z,16.50
2019-04-22T21:05:13.516Z,16.40
2019-04-22T21:07:48.002Z,16.20
2019-04-22T21:10:22.821Z,16.10
2019-04-22T21:12:50.953Z,16.10
2019-04-22T21:15:32.666Z,16.00
2019-04-22T21:17:59.557Z,15.90
2019-04-22T21:20:41.435Z,15.90
2019-04-22T21:23:14.308Z,15.90
2019-04-22T21:25:37.294Z,15.80
2019-04-22T21:28:21.425Z,15.30
2019-04-22T21:30:48.124Z,15.30
2019-04-22T21:33:15.190Z,15.10
2019-04-22T21:36:16.851Z,15.10
2019-04-22T21:38:32.823Z,15.20
2019-04-22T21:41:07.854Z,15.30
2019-04-22T21:43:40.409Z,15.50
2019-04-22T21:46:12.999Z,15.40
2019-04-22T21:48:44.900Z,15.40
2019-04-22T21:51:19.182Z,15.40
2019-04-22T21:54:04.044Z,15.20
2019-04-22T21:59:10.978Z,15.10
2019-04-22T22:01:49.765Z,15.20
2019-04-22T22:04:15.198Z,15.60
2019-04-22T22:06:39.621Z,16.00
2019-04-22T22:09:15.252Z,15.90
2019-04-22T22:11:46.238Z,15.70
2019-04-22T22:14:21.347Z,15.60
2019-04-22T22:16:41.604Z,15.40
2019-04-22T22:19:20.196Z,15.30
2019-04-22T22:22:32.713Z,15.30
2019-04-22T22:24:34.355Z,15.20
2019-04-22T22:27:01.508Z,15.20
2019-04-22T22:29:43.643Z,15.10
2019-04-22T22:32:05.331Z,15.10
2019-04-22T22:34:34.553Z,15.10
2019-04-22T22:37:00.357Z,15.20
2019-04-22T22:39:35.471Z,15.30
2019-04-22T22:41:54.346Z,15.30
2019-04-22T22:44:33.344Z,15.30
2019-04-22T22:47:16.291Z,15.20
2019-04-22T22:49:52.091Z,15.20
2019-04-22T22:52:45.123Z,15.10
2019-04-22T22:55:07.339Z,15.10
2019-04-22T22:57:35.209Z,15.10
2019-04-22T23:00:08.458Z,15.10
2019-04-22T23:02:52.239Z,15.10
2019-04-22T23:05:09.632Z,15.00
2019-04-22T23:07:46.334Z,15.00
2019-04-22T23:10:11.279Z,15.10
2019-04-22T23:12:51.547Z,15.10
2019-04-22T23:15:20.422Z,15.00
2019-04-22T23:17:39.766Z,15.00
2019-04-22T23:20:28.853Z,15.10
2019-04-22T23:23:15.819Z,15.10
2019-04-22T23:25:53.587Z,15.10
2019-04-22T23:28:19.310Z,15.10
2019-04-22T23:30:57.031Z,15.10
2019-04-22T23:33:42.474Z,15.10
2019-04-22T23:36:15.046Z,14.90
2019-04-22T23:38:57.265Z,14.90
2019-04-22T23:41:50.452Z,14.90
2019-04-22T23:44:24.029Z,14.90
2019-04-22T23:46:56.690Z,14.80
2019-04-22T23:49:28.173Z,14.70
2019-04-22T23:52:13.033Z,14.50
2019-04-22T23:54:53.777Z,14.40
2019-04-22T23:57:16.702Z,14.40
2019-04-22T23:59:49.842Z,14.40
